createdAt,value
2019-03-24T00:00:01.733Z,59.38
2019-03-24T00:00:42.752Z,59.94
2019-03-24T00:01:18.455Z,60.43
2019-03-24T00:01:49.639Z,61.13
2019-03-24T00:02:20.804Z,61.76
2019-03-24T00:02:52.018Z,62.17
2019-03-24T00:03:23.180Z,62.71
2019-03-24T00:03:54.404Z,63.40
2019-03-24T00:04:25.594Z,64.07
2019-03-24T00:04:56.783Z,64.39
2019-03-24T00:05:28.073Z,64.13
2019-03-24T00:05:59.251Z,63.55
2019-03-24T00:06:30.422Z,62.79
2019-03-24T00:07:01.603Z,62.06
2019-03-24T00:07:32.774Z,61.30
2019-03-24T00:08:03.948Z,60.30
2019-03-24T00:08:35.136Z,59.70
2019-03-24T00:09:06.621Z,59.06
2019-03-24T00:09:37.807Z,57.91
2019-03-24T00:10:09.020Z,57.16
2019-03-24T00:10:40.205Z,56.68
2019-03-24T00:11:11.395Z,56.60
2019-03-24T00:11:42.576Z,56.78
2019-03-24T00:12:13.756Z,57.19
2019-03-24T00:12:44.946Z,57.71
2019-03-24T00:13:16.142Z,58.33
2019-03-24T00:13:47.348Z,58.86
2019-03-24T00:14:18.539Z,59.40
2019-03-24T00:14:49.737Z,59.98
2019-03-24T00:15:26.338Z,60.67
2019-03-24T00:15:54.001Z,61.27
2019-03-24T00:16:25.181Z,61.88
2019-03-24T00:16:56.361Z,62.46
2019-03-24T00:17:27.749Z,63.29
2019-03-24T00:17:58.939Z,64.12
2019-03-24T00:18:30.137Z,64.51
2019-03-24T00:19:01.313Z,64.38
2019-03-24T00:19:32.517Z,63.95
2019-03-24T00:20:04.882Z,63.25
2019-03-24T00:20:36.079Z,62.42
2019-03-24T00:21:07.245Z,61.55
2019-03-24T00:21:38.463Z,60.82
2019-03-24T00:22:09.602Z,60.02
2019-03-24T00:22:40.815Z,59.13
2019-03-24T00:23:12.007Z,58.21
2019-03-24T00:23:43.196Z,57.49
2019-03-24T00:24:14.348Z,57.09
2019-03-24T00:24:45.539Z,57.02
2019-03-24T00:25:16.696Z,57.17
2019-03-24T00:25:47.906Z,57.49
2019-03-24T00:26:20.178Z,57.91
2019-03-24T00:26:51.399Z,58.41
2019-03-24T00:27:22.565Z,58.93
2019-03-24T00:27:54.000Z,59.39
2019-03-24T00:28:25.149Z,60.03
2019-03-24T00:28:56.347Z,60.61
2019-03-24T00:29:27.610Z,61.17
2019-03-24T00:29:58.854Z,61.85
2019-03-24T00:30:30.010Z,62.43
2019-03-24T00:31:01.254Z,63.16
2019-03-24T00:31:32.497Z,64.04
2019-03-24T00:32:03.706Z,64.45
2019-03-24T00:32:34.937Z,64.32
2019-03-24T00:33:06.155Z,63.89
2019-03-24T00:33:37.314Z,63.27
2019-03-24T00:34:08.516Z,62.54
2019-03-24T00:34:39.717Z,61.63
2019-03-24T00:35:10.908Z,60.86
2019-03-24T00:35:42.382Z,60.01
2019-03-24T00:36:13.575Z,59.26
2019-03-24T00:36:44.736Z,58.41
2019-03-24T00:37:15.964Z,57.63
2019-03-24T00:37:47.107Z,57.29
2019-03-24T00:38:18.321Z,57.11
2019-03-24T00:38:50.542Z,57.34
2019-03-24T00:39:21.777Z,57.65
2019-03-24T00:39:52.973Z,58.13
2019-03-24T00:40:24.136Z,58.69
2019-03-24T00:40:55.337Z,59.24
2019-03-24T00:41:26.507Z,59.81
2019-03-24T00:41:57.785Z,60.43
2019-03-24T00:42:28.939Z,61.02
2019-03-24T00:43:00.150Z,61.54
2019-03-24T00:43:31.316Z,62.06
2019-03-24T00:44:02.516Z,62.57
2019-03-24T00:44:33.675Z,63.34
2019-03-24T00:45:06.366Z,64.09
2019-03-24T00:45:37.514Z,64.35
2019-03-24T00:46:08.701Z,63.98
2019-03-24T00:46:39.859Z,63.54
2019-03-24T00:47:11.107Z,62.97
2019-03-24T00:47:42.269Z,62.20
2019-03-24T00:48:13.485Z,61.50
2019-03-24T00:48:44.670Z,60.69
2019-03-24T00:49:15.890Z,59.94
2019-03-24T00:49:47.065Z,59.20
2019-03-24T00:50:18.276Z,58.20
2019-03-24T00:50:49.412Z,57.43
2019-03-24T00:51:20.626Z,57.08
2019-03-24T00:51:51.793Z,57.05
2019-03-24T00:52:23.004Z,57.21
2019-03-24T00:52:54.193Z,57.60
2019-03-24T00:53:25.412Z,58.05
2019-03-24T00:53:56.574Z,58.59
2019-03-24T00:54:27.816Z,59.14
2019-03-24T00:54:59.008Z,59.69
2019-03-24T00:55:30.239Z,60.30
2019-03-24T00:56:01.485Z,60.97
2019-03-24T00:56:33.741Z,61.46
2019-03-24T00:57:04.917Z,62.04
2019-03-24T00:57:37.643Z,62.59
2019-03-24T00:58:09.053Z,63.34
2019-03-24T00:58:40.274Z,64.19
2019-03-24T00:59:11.461Z,64.51
2019-03-24T00:59:42.655Z,64.36
2019-03-24T01:00:13.866Z,63.84
2019-03-24T01:00:47.557Z,63.16
2019-03-24T01:01:19.031Z,62.35
2019-03-24T01:01:50.261Z,61.36
2019-03-24T01:02:21.441Z,60.73
2019-03-24T01:02:52.630Z,59.96
2019-03-24T01:03:23.999Z,59.28
2019-03-24T01:03:55.177Z,58.27
2019-03-24T01:04:26.365Z,57.35
2019-03-24T01:04:57.599Z,56.96
2019-03-24T01:05:28.819Z,56.92
2019-03-24T01:06:01.790Z,57.09
2019-03-24T01:06:33.126Z,57.45
2019-03-24T01:07:04.391Z,57.97
2019-03-24T01:07:35.625Z,58.50
2019-03-24T01:08:07.004Z,59.07
2019-03-24T01:08:38.172Z,59.59
2019-03-24T01:09:09.365Z,60.22
2019-03-24T01:09:40.549Z,60.75
2019-03-24T01:10:12.131Z,61.38
2019-03-24T01:10:43.283Z,61.82
2019-03-24T01:11:14.500Z,62.32
2019-03-24T01:11:45.664Z,63.13
2019-03-24T01:12:16.873Z,64.00
2019-03-24T01:12:49.038Z,64.25
2019-03-24T01:13:20.265Z,64.08
2019-03-24T01:13:51.464Z,63.76
2019-03-24T01:14:22.650Z,63.22
2019-03-24T01:14:54.035Z,62.28
2019-03-24T01:15:47.114Z,61.50
2019-03-24T01:16:10.176Z,60.98
2019-03-24T01:16:41.401Z,59.86
2019-03-24T01:17:12.557Z,59.18
2019-03-24T01:17:43.856Z,58.18
2019-03-24T01:18:15.056Z,57.33
2019-03-24T01:18:46.327Z,56.89
2019-03-24T01:19:17.480Z,56.83
2019-03-24T01:19:48.694Z,57.04
2019-03-24T01:20:19.969Z,57.23
2019-03-24T01:20:51.157Z,57.63
2019-03-24T01:21:22.305Z,58.10
2019-03-24T01:21:53.508Z,58.72
2019-03-24T01:22:24.669Z,59.29
2019-03-24T01:22:55.875Z,59.82
2019-03-24T01:23:27.168Z,60.41
2019-03-24T01:23:58.375Z,61.05
2019-03-24T01:24:29.553Z,61.45
2019-03-24T01:25:00.754Z,61.91
2019-03-24T01:25:31.950Z,62.35
2019-03-24T01:26:03.162Z,63.11
2019-03-24T01:26:34.397Z,63.89
2019-03-24T01:27:05.603Z,64.38
2019-03-24T01:27:36.794Z,64.19
2019-03-24T01:28:08.023Z,63.89
2019-03-24T01:28:39.291Z,63.25
2019-03-24T01:29:10.523Z,62.50
2019-03-24T01:29:41.756Z,61.61
2019-03-24T01:30:12.976Z,60.82
2019-03-24T01:30:44.182Z,59.98
2019-03-24T01:31:15.347Z,59.07
2019-03-24T01:31:46.550Z,57.96
2019-03-24T01:32:17.704Z,57.04
2019-03-24T01:32:48.908Z,56.55
2019-03-24T01:33:20.079Z,56.42
2019-03-24T01:33:51.295Z,56.44
2019-03-24T01:34:22.455Z,56.77
2019-03-24T01:34:53.738Z,57.25
2019-03-24T01:35:24.898Z,57.87
2019-03-24T01:35:56.094Z,58.30
2019-03-24T01:36:27.260Z,58.76
2019-03-24T01:36:58.494Z,59.33
2019-03-24T01:37:29.647Z,59.99
2019-03-24T01:38:00.922Z,60.31
2019-03-24T01:38:32.078Z,60.83
2019-03-24T01:39:05.772Z,61.32
2019-03-24T01:39:36.949Z,61.91
2019-03-24T01:40:08.548Z,62.49
2019-03-24T01:40:40.736Z,63.08
2019-03-24T01:41:11.937Z,63.82
2019-03-24T01:41:43.098Z,64.16
2019-03-24T01:42:14.315Z,64.08
2019-03-24T01:42:45.469Z,63.50
2019-03-24T01:43:16.684Z,62.97
2019-03-24T01:43:47.834Z,62.17
2019-03-24T01:44:19.054Z,61.21
2019-03-24T01:44:50.220Z,60.26
2019-03-24T01:45:21.422Z,59.35
2019-03-24T01:45:58.435Z,58.61
2019-03-24T01:46:25.742Z,57.56
2019-03-24T01:46:57.199Z,56.93
2019-03-24T01:47:28.429Z,56.69
2019-03-24T01:47:59.666Z,56.78
2019-03-24T01:48:30.923Z,57.14
2019-03-24T01:49:02.148Z,57.58
2019-03-24T01:49:33.379Z,58.14
2019-03-24T01:50:05.052Z,58.57
2019-03-24T01:50:36.339Z,59.10
2019-03-24T01:51:07.547Z,59.53
2019-03-24T01:51:38.692Z,59.92
2019-03-24T01:52:09.907Z,60.44
2019-03-24T01:52:41.059Z,61.00
2019-03-24T01:53:12.279Z,61.48
2019-03-24T01:53:43.433Z,61.87
2019-03-24T01:54:14.660Z,62.37
2019-03-24T01:54:45.843Z,62.98
2019-03-24T01:55:17.043Z,63.71
2019-03-24T01:55:48.224Z,64.16
2019-03-24T01:56:19.438Z,64.16
2019-03-24T01:56:50.658Z,63.59
2019-03-24T01:57:21.867Z,62.95
2019-03-24T01:57:53.054Z,62.19
2019-03-24T01:58:24.316Z,61.34
2019-03-24T01:58:55.488Z,60.52
2019-03-24T01:59:26.676Z,59.86
2019-03-24T01:59:58.882Z,59.11
2019-03-24T02:00:30.162Z,58.05
2019-03-24T02:01:01.329Z,57.09
2019-03-24T02:01:32.512Z,56.41
2019-03-24T02:02:03.747Z,56.13
2019-03-24T02:02:34.916Z,56.33
2019-03-24T02:03:06.104Z,56.65
2019-03-24T02:03:37.304Z,57.00
2019-03-24T02:04:08.503Z,57.60
2019-03-24T02:04:39.670Z,58.03
2019-03-24T02:05:10.870Z,58.51
2019-03-24T02:05:42.105Z,59.05
2019-03-24T02:06:13.313Z,59.51
2019-03-24T02:06:44.473Z,60.01
2019-03-24T02:07:15.673Z,60.43
2019-03-24T02:07:46.830Z,60.94
2019-03-24T02:08:18.030Z,61.47
2019-03-24T02:08:49.184Z,61.99
2019-03-24T02:09:20.418Z,62.45
2019-03-24T02:09:51.585Z,63.10
2019-03-24T02:10:22.815Z,63.81
2019-03-24T02:10:54.101Z,64.21
2019-03-24T02:11:25.330Z,64.02
2019-03-24T02:11:56.521Z,63.44
2019-03-24T02:12:27.771Z,62.88
2019-03-24T02:12:58.915Z,62.02
2019-03-24T02:13:30.128Z,61.29
2019-03-24T02:14:01.278Z,60.56
2019-03-24T02:14:32.487Z,59.55
2019-03-24T02:15:05.849Z,58.58
2019-03-24T02:15:37.049Z,57.49
2019-03-24T02:16:09.588Z,56.83
2019-03-24T02:16:40.951Z,56.66
2019-03-24T02:17:12.111Z,56.77
2019-03-24T02:17:43.309Z,57.04
2019-03-24T02:18:14.459Z,57.34
2019-03-24T02:18:45.671Z,57.85
2019-03-24T02:19:16.837Z,58.34
2019-03-24T02:19:48.052Z,58.81
2019-03-24T02:20:19.311Z,59.31
2019-03-24T02:20:50.521Z,59.83
2019-03-24T02:21:21.680Z,60.27
2019-03-24T02:21:52.912Z,60.77
2019-03-24T02:22:24.158Z,61.32
2019-03-24T02:22:55.390Z,61.91
2019-03-24T02:23:26.634Z,62.26
2019-03-24T02:23:57.962Z,62.67
2019-03-24T02:24:29.224Z,63.41
2019-03-24T02:25:00.457Z,64.24
2019-03-24T02:25:31.706Z,64.63
2019-03-24T02:26:02.924Z,64.50
2019-03-24T02:26:34.141Z,64.03
2019-03-24T02:27:05.291Z,63.17
2019-03-24T02:27:36.497Z,62.32
2019-03-24T02:28:07.681Z,61.54
2019-03-24T02:28:38.907Z,60.49
2019-03-24T02:29:10.104Z,59.61
2019-03-24T02:29:41.286Z,58.89
2019-03-24T02:30:12.819Z,57.87
2019-03-24T02:30:44.030Z,56.93
2019-03-24T02:31:15.274Z,56.42
2019-03-24T02:31:46.482Z,56.25
2019-03-24T02:32:17.645Z,56.40
2019-03-24T02:32:48.859Z,56.64
2019-03-24T02:33:20.022Z,56.95
2019-03-24T02:33:51.239Z,57.43
2019-03-24T02:34:22.393Z,57.87
2019-03-24T02:34:53.590Z,58.45
2019-03-24T02:35:24.763Z,58.96
2019-03-24T02:35:55.946Z,59.46
2019-03-24T02:36:27.140Z,59.94
2019-03-24T02:36:58.352Z,60.41
2019-03-24T02:37:29.509Z,60.87
2019-03-24T02:38:00.734Z,61.28
2019-03-24T02:38:31.966Z,61.73
2019-03-24T02:39:06.089Z,62.26
2019-03-24T02:39:37.400Z,62.68
2019-03-24T02:40:08.734Z,63.38
2019-03-24T02:40:39.967Z,64.24
2019-03-24T02:41:11.194Z,64.63
2019-03-24T02:41:42.466Z,64.53
2019-03-24T02:42:13.594Z,64.12
2019-03-24T02:42:44.798Z,63.23
2019-03-24T02:43:15.985Z,62.37
2019-03-24T02:43:47.185Z,61.63
2019-03-24T02:44:18.355Z,60.71
2019-03-24T02:44:49.558Z,59.84
2019-03-24T02:45:20.722Z,59.10
2019-03-24T02:45:51.945Z,57.93
2019-03-24T02:46:24.934Z,56.98
2019-03-24T02:46:56.298Z,56.43
2019-03-24T02:47:27.453Z,56.26
2019-03-24T02:47:58.653Z,56.41
2019-03-24T02:48:29.831Z,56.68
2019-03-24T02:49:01.049Z,57.10
2019-03-24T02:49:32.250Z,57.49
2019-03-24T02:50:05.242Z,57.88
2019-03-24T02:50:36.388Z,58.33
2019-03-24T02:51:07.619Z,58.87
2019-03-24T02:51:38.792Z,59.31
2019-03-24T02:52:10.008Z,59.78
2019-03-24T02:52:41.150Z,60.20
2019-03-24T02:53:12.364Z,60.73
2019-03-24T02:53:43.530Z,61.20
2019-03-24T02:54:14.756Z,61.64
2019-03-24T02:54:45.903Z,62.13
2019-03-24T02:55:17.114Z,62.58
2019-03-24T02:55:48.282Z,63.31
2019-03-24T02:56:19.496Z,64.09
2019-03-24T02:56:50.689Z,64.47
2019-03-24T02:57:21.938Z,64.38
2019-03-24T02:57:54.137Z,63.85
2019-03-24T02:58:25.320Z,62.98
2019-03-24T02:58:56.480Z,62.12
2019-03-24T02:59:28.733Z,61.19
2019-03-24T02:59:59.895Z,60.17
2019-03-24T03:00:31.096Z,59.36
2019-03-24T03:01:02.257Z,58.25
2019-03-24T03:01:33.471Z,57.15
2019-03-24T03:02:04.652Z,56.51
2019-03-24T03:02:35.843Z,56.30
2019-03-24T03:03:07.008Z,56.36
2019-03-24T03:03:38.184Z,56.56
2019-03-24T03:04:09.371Z,56.95
2019-03-24T03:04:40.547Z,57.35
2019-03-24T03:05:11.839Z,57.81
2019-03-24T03:05:43.010Z,58.27
2019-03-24T03:06:14.188Z,58.81
2019-03-24T03:06:45.391Z,59.33
2019-03-24T03:07:16.565Z,59.83
2019-03-24T03:07:47.740Z,60.30
2019-03-24T03:08:18.926Z,60.80
2019-03-24T03:08:50.102Z,61.32
2019-03-24T03:09:21.291Z,61.72
2019-03-24T03:09:52.575Z,62.11
2019-03-24T03:10:24.152Z,62.59
2019-03-24T03:10:55.334Z,63.14
2019-03-24T03:11:27.554Z,63.98
2019-03-24T03:11:58.777Z,64.30
2019-03-24T03:12:30.001Z,64.17
2019-03-24T03:13:01.185Z,63.65
2019-03-24T03:13:32.379Z,62.94
2019-03-24T03:14:03.568Z,61.95
2019-03-24T03:14:34.736Z,61.05
2019-03-24T03:15:07.511Z,60.14
2019-03-24T03:15:38.703Z,59.41
2019-03-24T03:16:09.874Z,58.28
2019-03-24T03:16:41.077Z,57.13
2019-03-24T03:17:12.274Z,56.40
2019-03-24T03:17:43.440Z,56.19
2019-03-24T03:18:14.659Z,56.29
2019-03-24T03:18:45.829Z,56.50
2019-03-24T03:19:17.036Z,56.89
2019-03-24T03:19:48.212Z,57.28
2019-03-24T03:20:19.401Z,57.70
2019-03-24T03:20:50.577Z,58.18
2019-03-24T03:21:21.778Z,58.71
2019-03-24T03:21:53.949Z,59.10
2019-03-24T03:22:25.166Z,59.66
2019-03-24T03:22:56.339Z,60.23
2019-03-24T03:23:27.862Z,60.78
2019-03-24T03:23:59.016Z,61.10
2019-03-24T03:24:30.221Z,61.45
2019-03-24T03:25:03.704Z,61.93
2019-03-24T03:25:34.924Z,62.18
2019-03-24T03:26:06.072Z,62.62
2019-03-24T03:26:37.273Z,63.31
2019-03-24T03:27:08.441Z,64.05
2019-03-24T03:27:39.646Z,64.29
2019-03-24T03:28:10.812Z,64.14
2019-03-24T03:28:42.001Z,63.55
2019-03-24T03:29:13.176Z,62.62
2019-03-24T03:29:44.369Z,61.92
2019-03-24T03:30:15.584Z,61.03
2019-03-24T03:30:46.850Z,60.03
2019-03-24T03:31:18.025Z,59.14
2019-03-24T03:31:49.212Z,57.91
2019-03-24T03:32:20.399Z,56.84
2019-03-24T03:32:51.592Z,56.12
2019-03-24T03:33:22.889Z,55.93
2019-03-24T03:33:54.149Z,56.01
2019-03-24T03:34:25.355Z,56.28
2019-03-24T03:34:56.636Z,56.61
2019-03-24T03:35:27.784Z,57.04
2019-03-24T03:35:58.984Z,57.45
2019-03-24T03:36:30.152Z,57.98
2019-03-24T03:37:01.364Z,58.46
2019-03-24T03:37:32.577Z,58.92
2019-03-24T03:38:03.897Z,59.31
2019-03-24T03:38:35.153Z,59.87
2019-03-24T03:39:06.465Z,60.47
2019-03-24T03:39:37.707Z,60.92
2019-03-24T03:40:08.950Z,61.44
2019-03-24T03:40:40.185Z,61.92
2019-03-24T03:41:11.424Z,62.38
2019-03-24T03:41:42.658Z,63.08
2019-03-24T03:42:13.884Z,63.98
2019-03-24T03:42:45.114Z,64.40
2019-03-24T03:43:16.270Z,64.42
2019-03-24T03:43:47.504Z,63.88
2019-03-24T03:44:18.669Z,63.20
2019-03-24T03:44:49.869Z,62.39
2019-03-24T03:45:25.825Z,61.55
2019-03-24T03:45:57.119Z,60.81
2019-03-24T03:46:28.267Z,59.79
2019-03-24T03:46:59.500Z,58.88
2019-03-24T03:47:30.693Z,57.73
2019-03-24T03:48:01.908Z,56.75
2019-03-24T03:48:33.043Z,56.21
2019-03-24T03:49:04.299Z,56.07
2019-03-24T03:49:35.462Z,56.15
2019-03-24T03:50:07.461Z,56.45
2019-03-24T03:50:38.616Z,56.85
2019-03-24T03:51:09.814Z,57.33
2019-03-24T03:51:40.972Z,57.89
2019-03-24T03:52:12.185Z,58.39
2019-03-24T03:52:43.472Z,58.82
2019-03-24T03:53:14.712Z,59.36
2019-03-24T03:53:45.998Z,59.82
2019-03-24T03:54:17.226Z,60.35
2019-03-24T03:54:48.463Z,60.88
2019-03-24T03:55:19.691Z,61.36
2019-03-24T03:55:50.919Z,61.76
2019-03-24T03:56:22.149Z,62.24
2019-03-24T03:56:53.384Z,62.72
2019-03-24T03:57:24.765Z,63.37
2019-03-24T03:57:55.980Z,64.26
2019-03-24T03:58:27.124Z,64.56
2019-03-24T03:58:58.322Z,64.46
2019-03-24T03:59:29.488Z,64.07
2019-03-24T04:00:00.661Z,63.40
2019-03-24T04:00:34.692Z,62.51
2019-03-24T04:01:06.973Z,61.56
2019-03-24T04:01:38.140Z,60.56
2019-03-24T04:02:09.284Z,59.59
2019-03-24T04:02:40.465Z,58.59
2019-03-24T04:03:11.646Z,57.39
2019-03-24T04:03:42.892Z,56.73
2019-03-24T04:04:14.128Z,56.42
2019-03-24T04:04:45.291Z,56.48
2019-03-24T04:05:16.502Z,56.64
2019-03-24T04:05:47.662Z,57.00
2019-03-24T04:06:18.865Z,57.40
2019-03-24T04:06:50.027Z,57.83
2019-03-24T04:07:21.222Z,58.33
2019-03-24T04:07:52.420Z,58.64
2019-03-24T04:08:23.622Z,59.12
2019-03-24T04:08:54.793Z,59.54
2019-03-24T04:09:26.053Z,60.06
2019-03-24T04:09:57.607Z,60.56
2019-03-24T04:10:28.863Z,60.89
2019-03-24T04:11:00.011Z,61.35
2019-03-24T04:11:31.365Z,61.81
2019-03-24T04:12:02.585Z,62.29
2019-03-24T04:12:33.785Z,62.73
2019-03-24T04:13:04.966Z,63.41
2019-03-24T04:13:36.224Z,64.19
2019-03-24T04:14:07.408Z,64.56
2019-03-24T04:14:38.604Z,64.44
2019-03-24T04:15:09.783Z,63.87
2019-03-24T04:15:40.978Z,63.13
2019-03-24T04:16:12.158Z,62.26
2019-03-24T04:16:43.326Z,61.39
2019-03-24T04:17:14.553Z,60.53
2019-03-24T04:17:45.729Z,59.69
2019-03-24T04:18:16.929Z,58.84
2019-03-24T04:18:48.202Z,57.58
2019-03-24T04:19:19.428Z,56.61
2019-03-24T04:19:50.607Z,56.01
2019-03-24T04:20:21.784Z,55.80
2019-03-24T04:20:52.972Z,55.84
2019-03-24T04:21:24.148Z,56.08
2019-03-24T04:21:55.348Z,56.38
2019-03-24T04:22:26.525Z,56.71
2019-03-24T04:22:57.730Z,57.20
2019-03-24T04:23:28.890Z,57.69
2019-03-24T04:24:00.071Z,58.06
2019-03-24T04:24:31.259Z,58.54
2019-03-24T04:25:04.845Z,59.05
2019-03-24T04:25:36.023Z,59.50
2019-03-24T04:26:07.208Z,59.96
2019-03-24T04:26:38.387Z,60.53
2019-03-24T04:27:09.580Z,60.93
2019-03-24T04:27:40.825Z,61.37
2019-03-24T04:28:12.028Z,61.84
2019-03-24T04:28:43.207Z,62.42
2019-03-24T04:29:14.389Z,63.13
2019-03-24T04:29:45.590Z,63.96
2019-03-24T04:30:16.760Z,64.40
2019-03-24T04:30:48.041Z,64.33
2019-03-24T04:31:19.204Z,63.76
2019-03-24T04:31:50.422Z,63.11
2019-03-24T04:32:21.559Z,62.33
2019-03-24T04:32:52.868Z,61.40
2019-03-24T04:33:24.145Z,60.54
2019-03-24T04:33:55.395Z,59.71
2019-03-24T04:34:26.623Z,58.63
2019-03-24T04:34:57.852Z,57.38
2019-03-24T04:35:29.189Z,56.33
2019-03-24T04:36:00.422Z,55.61
2019-03-24T04:36:31.651Z,55.29
2019-03-24T04:37:02.872Z,55.33
2019-03-24T04:37:34.122Z,55.55
2019-03-24T04:38:05.369Z,55.93
2019-03-24T04:38:36.782Z,56.27
2019-03-24T04:39:07.931Z,56.69
2019-03-24T04:39:39.170Z,57.21
2019-03-24T04:40:10.448Z,57.65
2019-03-24T04:40:41.711Z,58.14
2019-03-24T04:41:12.889Z,58.59
2019-03-24T04:41:44.098Z,59.10
2019-03-24T04:42:15.264Z,59.49
2019-03-24T04:42:46.485Z,59.89
2019-03-24T04:43:17.659Z,60.19
2019-03-24T04:43:48.873Z,60.71
2019-03-24T04:44:20.036Z,61.11
2019-03-24T04:44:51.289Z,61.52
2019-03-24T04:45:22.889Z,61.98
2019-03-24T04:45:54.098Z,62.33
2019-03-24T04:46:25.300Z,62.67
2019-03-24T04:46:56.495Z,63.41
2019-03-24T04:47:27.697Z,64.03
2019-03-24T04:47:58.897Z,64.65
2019-03-24T04:48:30.101Z,64.59
2019-03-24T04:49:01.366Z,64.03
2019-03-24T04:49:32.511Z,63.34
2019-03-24T04:50:06.490Z,62.54
2019-03-24T04:50:37.674Z,61.68
2019-03-24T04:51:08.892Z,60.72
2019-03-24T04:51:41.061Z,59.75
2019-03-24T04:52:12.285Z,58.83
2019-03-24T04:52:43.549Z,57.71
2019-03-24T04:53:14.737Z,56.70
2019-03-24T04:53:45.925Z,56.12
2019-03-24T04:54:17.190Z,55.95
2019-03-24T04:54:48.415Z,56.11
2019-03-24T04:55:19.645Z,56.39
2019-03-24T04:55:50.885Z,56.83
2019-03-24T04:56:22.117Z,57.32
2019-03-24T04:56:53.368Z,57.81
2019-03-24T04:57:24.676Z,58.43
2019-03-24T04:57:55.921Z,58.90
2019-03-24T04:58:27.145Z,59.43
2019-03-24T04:58:58.353Z,60.08
2019-03-24T04:59:29.585Z,60.73
2019-03-24T05:00:01.293Z,61.13
2019-03-24T05:00:35.146Z,61.69
2019-03-24T05:01:06.369Z,62.12
2019-03-24T05:01:37.525Z,62.75
2019-03-24T05:02:08.747Z,63.61
2019-03-24T05:02:39.926Z,64.49
2019-03-24T05:03:11.127Z,64.85
2019-03-24T05:03:42.303Z,64.78
2019-03-24T05:04:13.490Z,64.25
2019-03-24T05:04:44.650Z,63.56
2019-03-24T05:05:15.883Z,62.77
2019-03-24T05:05:47.058Z,61.86
2019-03-24T05:06:18.289Z,61.02
2019-03-24T05:06:49.445Z,60.09
2019-03-24T05:07:20.649Z,59.31
2019-03-24T05:07:51.787Z,58.26
2019-03-24T05:08:22.991Z,57.21
2019-03-24T05:08:54.178Z,56.73
2019-03-24T05:09:25.731Z,56.55
2019-03-24T05:09:57.156Z,56.55
2019-03-24T05:10:28.415Z,56.89
2019-03-24T05:10:59.644Z,57.20
2019-03-24T05:11:31.978Z,57.64
2019-03-24T05:12:03.211Z,58.25
2019-03-24T05:12:34.461Z,58.86
2019-03-24T05:13:05.702Z,59.40
2019-03-24T05:13:36.927Z,59.93
2019-03-24T05:14:08.143Z,60.40
2019-03-24T05:14:39.306Z,61.05
2019-03-24T05:15:10.519Z,61.68
2019-03-24T05:15:41.691Z,62.32
2019-03-24T05:16:12.885Z,62.96
2019-03-24T05:16:44.073Z,63.87
2019-03-24T05:17:15.291Z,64.45
2019-03-24T05:17:46.436Z,64.57
2019-03-24T05:18:17.626Z,64.26
2019-03-24T05:18:48.787Z,63.69
2019-03-24T05:19:19.987Z,62.87
2019-03-24T05:19:51.243Z,61.86
2019-03-24T05:20:22.427Z,61.01
2019-03-24T05:20:53.615Z,60.18
2019-03-24T05:21:24.788Z,59.43
2019-03-24T05:21:55.967Z,58.32
2019-03-24T05:22:27.200Z,57.31
2019-03-24T05:22:58.388Z,56.71
2019-03-24T05:23:29.576Z,56.56
2019-03-24T05:24:00.806Z,56.71
2019-03-24T05:24:31.978Z,57.01
2019-03-24T05:25:03.620Z,57.45
2019-03-24T05:25:34.848Z,57.93
2019-03-24T05:26:06.095Z,58.43
2019-03-24T05:26:37.308Z,58.85
2019-03-24T05:27:08.750Z,59.34
2019-03-24T05:27:39.979Z,59.82
2019-03-24T05:28:11.210Z,60.34
2019-03-24T05:28:42.439Z,60.96
2019-03-24T05:29:13.658Z,61.35
2019-03-24T05:29:44.848Z,61.77
2019-03-24T05:30:16.034Z,62.18
2019-03-24T05:30:47.215Z,62.72
2019-03-24T05:31:18.396Z,63.33
2019-03-24T05:31:49.568Z,64.14
2019-03-24T05:32:20.780Z,64.57
2019-03-24T05:32:51.952Z,64.46
2019-03-24T05:33:23.123Z,63.92
2019-03-24T05:33:54.300Z,63.12
2019-03-24T05:34:25.474Z,62.22
2019-03-24T05:34:56.697Z,61.28
2019-03-24T05:35:27.907Z,60.47
2019-03-24T05:35:59.091Z,59.65
2019-03-24T05:36:30.288Z,58.89
2019-03-24T05:37:01.455Z,57.71
2019-03-24T05:37:32.641Z,56.80
2019-03-24T05:38:03.821Z,56.41
2019-03-24T05:38:35.002Z,56.31
2019-03-24T05:39:06.235Z,56.51
2019-03-24T05:39:37.480Z,56.90
2019-03-24T05:40:08.639Z,57.32
2019-03-24T05:40:39.849Z,57.86
2019-03-24T05:41:11.962Z,58.48
2019-03-24T05:41:43.302Z,58.84
2019-03-24T05:42:14.475Z,59.39
2019-03-24T05:42:45.689Z,60.02
2019-03-24T05:43:16.872Z,60.66
2019-03-24T05:43:48.091Z,61.03
2019-03-24T05:44:19.265Z,61.47
2019-03-24T05:44:51.432Z,61.89
2019-03-24T05:45:22.638Z,62.53
2019-03-24T05:45:53.932Z,63.30
2019-03-24T05:46:25.125Z,64.14
2019-03-24T05:46:56.305Z,64.62
2019-03-24T05:47:36.776Z,64.56
2019-03-24T05:48:00.616Z,64.27
2019-03-24T05:48:31.799Z,63.54
2019-03-24T05:49:02.978Z,62.63
2019-03-24T05:49:34.172Z,61.69
2019-03-24T05:50:08.852Z,60.74
2019-03-24T05:50:40.080Z,59.95
2019-03-24T05:51:11.245Z,58.95
2019-03-24T05:51:42.449Z,57.98
2019-03-24T05:52:13.624Z,57.00
2019-03-24T05:52:44.887Z,56.52
2019-03-24T05:53:16.039Z,56.33
2019-03-24T05:53:47.245Z,56.40
2019-03-24T05:54:18.395Z,56.75
2019-03-24T05:54:49.569Z,57.24
2019-03-24T05:55:20.738Z,57.78
2019-03-24T05:55:51.921Z,58.27
2019-03-24T05:56:23.114Z,58.78
2019-03-24T05:56:54.327Z,59.44
2019-03-24T05:57:25.621Z,59.75
2019-03-24T05:57:56.917Z,60.35
2019-03-24T05:58:28.109Z,61.04
2019-03-24T05:58:59.301Z,61.60
2019-03-24T05:59:30.483Z,62.17
2019-03-24T06:00:05.208Z,62.78
2019-03-24T06:00:36.470Z,63.55
2019-03-24T06:01:07.687Z,64.42
2019-03-24T06:01:38.918Z,64.63
2019-03-24T06:02:10.149Z,64.23
2019-03-24T06:02:41.388Z,63.81
2019-03-24T06:03:12.627Z,62.98
2019-03-24T06:03:43.880Z,62.12
2019-03-24T06:04:15.107Z,61.32
2019-03-24T06:04:46.313Z,60.36
2019-03-24T06:05:17.493Z,59.61
2019-03-24T06:05:48.710Z,58.82
2019-03-24T06:06:19.858Z,57.40
2019-03-24T06:06:51.074Z,56.27
2019-03-24T06:07:22.231Z,55.95
2019-03-24T06:07:53.449Z,55.95
2019-03-24T06:08:24.608Z,56.17
2019-03-24T06:08:55.821Z,56.60
2019-03-24T06:09:27.099Z,57.02
2019-03-24T06:09:58.304Z,57.56
2019-03-24T06:10:29.476Z,57.98
2019-03-24T06:11:00.697Z,58.40
2019-03-24T06:11:31.854Z,58.98
2019-03-24T06:12:03.069Z,59.60
2019-03-24T06:12:34.223Z,60.10
2019-03-24T06:13:05.432Z,60.45
2019-03-24T06:13:36.654Z,60.89
2019-03-24T06:14:07.877Z,61.49
2019-03-24T06:14:39.061Z,61.87
2019-03-24T06:15:10.282Z,62.41
2019-03-24T06:15:41.436Z,63.12
2019-03-24T06:16:12.695Z,64.01
2019-03-24T06:16:43.870Z,64.46
2019-03-24T06:17:15.112Z,64.17
2019-03-24T06:17:47.988Z,63.60
2019-03-24T06:18:19.367Z,62.98
2019-03-24T06:18:50.543Z,62.15
2019-03-24T06:19:21.750Z,61.24
2019-03-24T06:19:52.969Z,60.14
2019-03-24T06:20:24.145Z,59.44
2019-03-24T06:20:55.342Z,58.27
2019-03-24T06:21:26.609Z,57.22
2019-03-24T06:21:57.803Z,56.40
2019-03-24T06:22:28.989Z,56.09
2019-03-24T06:23:00.155Z,56.17
2019-03-24T06:23:31.349Z,56.47
2019-03-24T06:24:02.527Z,56.81
2019-03-24T06:24:33.724Z,57.35
2019-03-24T06:25:05.302Z,57.59
2019-03-24T06:25:36.449Z,58.05
2019-03-24T06:26:07.661Z,58.57
2019-03-24T06:26:38.815Z,59.22
2019-03-24T06:27:10.027Z,59.79
2019-03-24T06:27:41.199Z,60.10
2019-03-24T06:28:12.418Z,60.66
2019-03-24T06:28:43.587Z,61.13
2019-03-24T06:29:14.981Z,61.71
2019-03-24T06:29:46.165Z,62.28
2019-03-24T06:30:17.447Z,62.59
2019-03-24T06:30:48.626Z,63.22
2019-03-24T06:31:19.813Z,64.22
2019-03-24T06:31:50.996Z,64.37
2019-03-24T06:32:22.186Z,64.06
2019-03-24T06:32:53.348Z,63.84
2019-03-24T06:33:24.534Z,62.81
2019-03-24T06:33:55.720Z,62.02
2019-03-24T06:34:27.016Z,60.88
2019-03-24T06:34:58.210Z,60.08
2019-03-24T06:35:29.390Z,59.37
2019-03-24T06:36:00.585Z,58.30
2019-03-24T06:36:31.770Z,57.18
2019-03-24T06:37:02.955Z,56.53
2019-03-24T06:37:34.541Z,56.42
2019-03-24T06:38:05.718Z,56.16
2019-03-24T06:38:36.916Z,56.33
2019-03-24T06:39:08.161Z,56.35
2019-03-24T06:39:39.404Z,57.09
2019-03-24T06:40:11.003Z,57.60
2019-03-24T06:40:42.182Z,57.85
2019-03-24T06:41:13.435Z,58.32
2019-03-24T06:41:44.655Z,58.88
2019-03-24T06:42:15.898Z,59.07
2019-03-24T06:42:47.132Z,59.59
2019-03-24T06:43:18.360Z,60.18